createdAt,value
2017-08-23T00:01:56.390Z,5.03
2017-08-23T00:04:27.719Z,23.33
2017-08-23T00:06:59.048Z,4.63
2017-08-23T00:09:30.468Z,4.03
2017-08-23T00:12:02.538Z,8.67
2017-08-23T00:14:33.914Z,3.77
2017-08-23T00:17:05.467Z,7.03
2017-08-23T00:19:36.779Z,4.30
2017-08-23T00:22:08.246Z,4.93
2017-08-23T00:24:41.017Z,10.73
2017-08-23T00:27:12.476Z,4.90
2017-08-23T00:29:44.957Z,6.00
2017-08-23T00:32:16.373Z,6.93
2017-08-23T00:34:47.741Z,6.60
2017-08-23T00:37:19.143Z,16.77
2017-08-23T00:39:50.516Z,10.37
2017-08-23T00:42:22.897Z,11.27
2017-08-23T00:44:54.259Z,8.53
2017-08-23T00:47:25.991Z,14.20
2017-08-23T00:49:57.543Z,5.00
2017-08-23T00:52:29.240Z,9.27
2017-08-23T00:55:00.599Z,9.13
2017-08-23T00:57:31.931Z,9.43
2017-08-23T01:00:03.946Z,7.03
2017-08-23T01:02:35.300Z,7.37
2017-08-23T01:05:07.133Z,14.03
2017-08-23T01:07:38.509Z,7.23
2017-08-23T01:10:10.840Z,15.43
2017-08-23T01:12:43.157Z,5.37
2017-08-23T01:15:14.497Z,8.07
2017-08-23T01:17:46.760Z,5.97
2017-08-23T01:20:18.198Z,6.80
2017-08-23T01:22:50.522Z,7.23
2017-08-23T01:25:22.067Z,11.70
2017-08-23T01:27:53.383Z,12.03
2017-08-23T01:30:24.952Z,9.37
2017-08-23T01:32:56.308Z,9.50
2017-08-23T01:35:27.733Z,9.60
2017-08-23T01:37:59.084Z,11.83
2017-08-23T01:40:30.561Z,9.40
2017-08-23T01:43:02.213Z,6.53
2017-08-23T01:45:33.558Z,14.23
2017-08-23T01:48:05.612Z,7.40
2017-08-23T01:50:36.964Z,19.77
2017-08-23T01:53:08.328Z,14.20
2017-08-23T01:55:40.526Z,6.80
2017-08-23T01:58:12.263Z,11.30
2017-08-23T02:00:45.437Z,7.60
2017-08-23T02:03:17.504Z,11.00
2017-08-23T02:05:50.040Z,5.47
2017-08-23T02:08:21.415Z,12.47
2017-08-23T02:10:52.804Z,10.57
2017-08-23T02:13:24.202Z,9.17
2017-08-23T02:15:56.022Z,11.63
2017-08-23T02:18:28.890Z,9.37
2017-08-23T02:21:00.679Z,9.27
2017-08-23T02:23:32.564Z,15.23
2017-08-23T02:26:05.499Z,10.57
2017-08-23T02:28:37.184Z,9.13
2017-08-23T02:31:08.677Z,6.37
2017-08-23T02:33:40.942Z,6.80
2017-08-23T02:36:12.561Z,11.80
2017-08-23T02:38:45.223Z,6.93
2017-08-23T02:41:16.560Z,8.00
2017-08-23T02:43:47.992Z,6.60
2017-08-23T02:46:19.522Z,4.87
2017-08-23T02:48:51.177Z,4.10
2017-08-23T02:51:22.595Z,8.10
2017-08-23T02:53:53.964Z,7.10
2017-08-23T02:56:31.388Z,4.30
2017-08-23T02:59:03.237Z,4.80
2017-08-23T03:01:34.596Z,6.47
2017-08-23T03:04:07.166Z,6.40
2017-08-23T03:06:38.531Z,4.73
2017-08-23T03:09:09.873Z,5.33
2017-08-23T03:11:41.426Z,7.30
2017-08-23T03:14:14.224Z,21.17
2017-08-23T03:16:46.883Z,11.00
2017-08-23T03:19:18.247Z,8.73
2017-08-23T03:21:49.647Z,6.50
2017-08-23T03:24:21.616Z,15.63
2017-08-23T03:26:53.784Z,6.63
2017-08-23T03:29:25.150Z,7.70
2017-08-23T03:31:56.475Z,8.83
2017-08-23T03:34:28.453Z,12.53
2017-08-23T03:36:59.818Z,12.63
2017-08-23T03:39:31.298Z,15.77
2017-08-23T03:42:03.110Z,8.40
2017-08-23T03:44:34.505Z,20.53
2017-08-23T03:47:05.945Z,15.73
2017-08-23T03:49:37.311Z,16.03
2017-08-23T03:52:08.941Z,14.67
2017-08-23T03:54:40.510Z,12.90
2017-08-23T03:57:11.881Z,12.30
2017-08-23T03:59:45.472Z,13.63
2017-08-23T04:02:16.977Z,14.43
2017-08-23T04:04:48.329Z,14.20
2017-08-23T04:07:19.668Z,17.80
2017-08-23T04:09:51.009Z,11.90
2017-08-23T04:12:22.385Z,12.30
2017-08-23T04:14:53.737Z,7.10
2017-08-23T04:17:25.105Z,16.87
2017-08-23T04:19:56.451Z,16.73
2017-08-23T04:22:27.976Z,13.80
2017-08-23T04:24:59.328Z,11.53
2017-08-23T04:27:30.687Z,12.60
2017-08-23T04:30:03.403Z,13.97
2017-08-23T04:32:34.726Z,10.47
2017-08-23T04:35:06.073Z,11.00
2017-08-23T04:37:37.436Z,22.27
2017-08-23T04:40:08.832Z,23.87
2017-08-23T04:42:41.161Z,19.03
2017-08-23T04:45:12.568Z,15.53
2017-08-23T04:47:44.814Z,17.53
2017-08-23T04:50:16.238Z,12.00
2017-08-23T04:52:48.009Z,27.03
2017-08-23T04:55:19.379Z,23.20
2017-08-23T04:57:50.916Z,17.63
2017-08-23T05:00:22.607Z,24.13
2017-08-23T05:02:54.015Z,21.23
2017-08-23T05:05:25.531Z,23.90
2017-08-23T05:07:56.875Z,21.63
2017-08-23T05:10:28.294Z,50.07
2017-08-23T05:12:59.705Z,31.17
2017-08-23T05:15:31.078Z,18.50
2017-08-23T05:18:03.659Z,19.47
2017-08-23T05:20:35.127Z,24.70
2017-08-23T05:23:06.462Z,15.10
2017-08-23T05:25:37.827Z,18.77
2017-08-23T05:28:09.260Z,22.80
2017-08-23T05:30:41.300Z,21.13
2017-08-23T05:33:14.749Z,23.33
2017-08-23T05:35:46.460Z,19.60
2017-08-23T05:38:17.816Z,32.60
2017-08-23T05:40:49.421Z,31.03
2017-08-23T05:43:20.764Z,37.37
2017-08-23T05:45:52.128Z,25.17
2017-08-23T05:48:23.474Z,25.03
2017-08-23T05:50:54.883Z,17.37
2017-08-23T05:53:26.250Z,18.80
2017-08-23T05:55:57.643Z,11.97
2017-08-23T05:58:29.058Z,18.60
2017-08-23T06:01:00.677Z,24.03
2017-08-23T06:03:32.095Z,20.80
2017-08-23T06:06:04.754Z,13.17
2017-08-23T06:08:36.196Z,16.73
2017-08-23T06:11:07.687Z,23.33
2017-08-23T06:13:39.046Z,20.77
2017-08-23T06:16:11.823Z,17.07
2017-08-23T06:18:44.861Z,16.23
2017-08-23T06:21:16.306Z,13.67
2017-08-23T06:23:47.771Z,22.50
2017-08-23T06:26:19.631Z,18.97
2017-08-23T06:28:50.988Z,20.67
2017-08-23T06:31:22.537Z,24.73
2017-08-23T06:33:54.078Z,21.33
2017-08-23T06:36:25.488Z,25.67
2017-08-23T06:38:56.888Z,38.13
2017-08-23T06:41:28.299Z,22.60
2017-08-23T06:43:59.789Z,27.50
2017-08-23T06:46:31.248Z,20.73
2017-08-23T06:49:02.853Z,27.63
2017-08-23T06:51:34.225Z,18.53
2017-08-23T06:54:08.606Z,23.67
2017-08-23T06:56:40.526Z,26.03
2017-08-23T06:59:12.029Z,27.03
2017-08-23T07:01:44.717Z,21.73
2017-08-23T07:04:16.142Z,24.57
2017-08-23T07:06:47.556Z,20.17
2017-08-23T07:09:18.961Z,16.17
2017-08-23T07:11:50.361Z,14.50
2017-08-23T07:14:22.764Z,20.90
2017-08-23T07:16:54.166Z,14.27
2017-08-23T07:19:25.784Z,13.10
2017-08-23T07:21:57.539Z,10.70
2017-08-23T07:24:28.876Z,19.30
2017-08-23T07:27:00.358Z,15.77
2017-08-23T07:29:31.791Z,21.50
2017-08-23T07:32:04.456Z,21.77
2017-08-23T07:34:35.832Z,20.73
2017-08-23T07:37:07.369Z,24.20
2017-08-23T07:39:41.173Z,16.30
2017-08-23T07:42:13.640Z,11.50
2017-08-23T07:44:46.170Z,10.63
2017-08-23T07:47:17.591Z,15.57
2017-08-23T07:51:17.929Z,18.43
2017-08-23T07:53:49.333Z,18.13
2017-08-23T07:56:20.725Z,11.97
2017-08-23T07:58:57.754Z,21.37
2017-08-23T08:01:29.145Z,14.10
2017-08-23T08:04:00.498Z,11.40
2017-08-23T08:06:31.850Z,18.07
2017-08-23T08:09:03.754Z,11.93
2017-08-23T08:11:35.145Z,15.73
2017-08-23T08:14:06.838Z,10.00
2017-08-23T08:16:38.262Z,12.47
2017-08-23T08:19:09.636Z,11.23
2017-08-23T08:21:41.068Z,4.93
2017-08-23T08:24:13.927Z,11.43
2017-08-23T08:26:47.786Z,6.13
2017-08-23T08:29:19.404Z,7.93
2017-08-23T08:31:50.777Z,5.90
2017-08-23T08:34:22.195Z,5.00
2017-08-23T08:36:54.049Z,5.70
2017-08-23T08:41:50.776Z,10.37
2017-08-23T08:44:22.096Z,4.37
2017-08-23T08:46:54.490Z,4.10
2017-08-23T08:49:25.884Z,8.60
2017-08-23T08:51:57.206Z,8.60
2017-08-23T08:54:28.554Z,12.67
2017-08-23T08:56:59.937Z,8.87
2017-08-23T08:59:33.610Z,10.87
2017-08-23T09:02:05.504Z,6.00
2017-08-23T09:04:37.015Z,7.60
2017-08-23T09:07:08.780Z,11.07
2017-08-23T09:09:40.725Z,4.87
2017-08-23T09:12:12.404Z,8.20
2017-08-23T09:14:45.385Z,4.70
2017-08-23T09:17:16.684Z,6.93
2017-08-23T09:19:49.067Z,7.93
2017-08-23T09:22:20.394Z,7.53
2017-08-23T09:24:51.753Z,9.73
2017-08-23T09:27:23.361Z,9.90
2017-08-23T09:29:54.705Z,10.10
2017-08-23T09:32:26.048Z,4.93
2017-08-23T09:34:57.654Z,9.73
2017-08-23T09:37:29.101Z,8.37
2017-08-23T09:40:00.440Z,10.17
2017-08-23T09:42:32.831Z,8.07
2017-08-23T09:45:05.360Z,10.40
2017-08-23T09:47:37.125Z,8.50
2017-08-23T09:50:08.494Z,6.07
2017-08-23T09:52:40.150Z,12.37
2017-08-23T09:55:11.568Z,9.73
2017-08-23T09:57:45.724Z,24.10
2017-08-23T10:00:18.541Z,7.37
2017-08-23T10:02:52.442Z,11.80
2017-08-23T10:11:28.240Z,5.20
2017-08-23T10:13:59.640Z,10.60
2017-08-23T10:16:31.647Z,10.50
2017-08-23T10:19:03.685Z,7.13
2017-08-23T10:21:36.536Z,11.23
2017-08-23T10:24:09.546Z,6.27
2017-08-23T10:26:41.226Z,9.87
2017-08-23T10:29:14.537Z,6.23
2017-08-23T10:31:48.984Z,5.97
2017-08-23T10:34:24.383Z,7.27
2017-08-23T10:36:57.427Z,5.60
2017-08-23T10:39:30.211Z,11.93
2017-08-23T10:42:03.056Z,42.83
2017-08-23T10:44:34.700Z,49.07
2017-08-23T10:47:07.640Z,17.00
2017-08-23T10:49:39.236Z,8.67
2017-08-23T10:52:10.535Z,7.47
2017-08-23T10:54:42.277Z,6.73
2017-08-23T10:57:13.891Z,5.37
2017-08-23T10:59:45.212Z,4.20
2017-08-23T11:02:19.162Z,7.27
2017-08-23T11:04:50.954Z,2.70
2017-08-23T11:07:25.121Z,7.77
2017-08-23T11:09:56.831Z,11.40
2017-08-23T11:12:30.831Z,11.73
2017-08-23T11:15:03.992Z,4.43
2017-08-23T11:17:35.834Z,7.40
2017-08-23T11:59:58.695Z,7.20
2017-08-23T12:20:07.988Z,9.30
2017-08-23T14:31:29.113Z,6.60
2017-08-23T14:34:00.469Z,3.50
2017-08-23T14:36:32.094Z,2.70
2017-08-23T14:39:03.778Z,2.28
2017-08-23T14:41:35.553Z,2.30
2017-08-23T14:44:06.871Z,4.68
2017-08-23T14:46:38.179Z,2.22
2017-08-23T14:49:10.225Z,2.83
2017-08-23T14:51:41.646Z,1.87
2017-08-23T14:54:13.254Z,3.35
2017-08-23T14:56:44.884Z,4.75
2017-08-23T14:59:16.613Z,6.12
2017-08-23T15:01:47.972Z,2.17
2017-08-23T15:04:19.803Z,1.90
2017-08-23T15:06:51.181Z,1.92
2017-08-23T15:09:24.258Z,5.68
2017-08-23T15:11:56.032Z,4.65
2017-08-23T15:14:28.201Z,10.48
2017-08-23T15:16:59.505Z,3.30
2017-08-23T15:19:31.099Z,7.82
2017-08-23T15:22:03.401Z,7.03
2017-08-23T15:24:34.741Z,2.10
2017-08-23T15:27:06.355Z,1.70
2017-08-23T15:29:37.645Z,4.05
2017-08-23T15:32:09.266Z,3.80
2017-08-23T15:34:40.563Z,2.45
2017-08-23T15:37:11.860Z,2.65
2017-08-23T15:39:43.455Z,4.82
2017-08-23T15:42:14.795Z,1.95
2017-08-23T15:44:46.175Z,6.53
2017-08-23T15:47:17.819Z,7.15
2017-08-23T15:49:49.161Z,29.25
2017-08-23T15:52:22.739Z,2.15
2017-08-23T15:54:54.148Z,4.25
2017-08-23T15:57:29.051Z,4.97
2017-08-23T16:00:00.871Z,4.30
2017-08-23T16:02:32.185Z,4.72
2017-08-23T16:05:04.711Z,5.85
2017-08-23T16:07:36.345Z,1.55
2017-08-23T16:10:07.663Z,1.67
2017-08-23T16:12:39.041Z,4.53
2017-08-23T16:15:10.824Z,3.80
2017-08-23T16:17:42.186Z,7.12
2017-08-23T16:20:13.826Z,2.25
2017-08-23T16:22:45.200Z,5.50
2017-08-23T16:25:16.526Z,1.60
2017-08-23T16:27:49.031Z,1.80
2017-08-23T16:30:20.543Z,7.43
2017-08-23T16:32:51.910Z,1.80
2017-08-23T16:35:24.552Z,2.78
2017-08-23T16:37:55.881Z,1.60
2017-08-23T16:40:28.229Z,5.75
2017-08-23T16:42:59.541Z,4.82
2017-08-23T16:45:30.865Z,13.80
2017-08-23T16:48:05.208Z,1.50
2017-08-23T16:50:37.483Z,2.67
2017-08-23T16:53:09.600Z,3.42
2017-08-23T16:55:41.124Z,1.90
2017-08-23T16:58:12.535Z,5.07
2017-08-23T17:00:44.139Z,3.60
2017-08-23T17:03:15.612Z,1.67
2017-08-23T17:05:47.196Z,2.27
2017-08-23T17:08:18.569Z,2.03
2017-08-23T17:10:49.891Z,4.53
2017-08-23T17:13:22.580Z,2.20
2017-08-23T17:15:54.075Z,2.27
2017-08-23T17:18:27.327Z,3.50
2017-08-23T17:20:58.930Z,2.57
2017-08-23T17:23:30.273Z,11.47
2017-08-23T17:26:02.598Z,4.20
2017-08-23T17:28:34.221Z,3.20
2017-08-23T17:31:05.553Z,6.20
2017-08-23T17:33:36.855Z,9.60
2017-08-23T17:36:08.529Z,14.40
2017-08-23T17:38:39.889Z,3.17
2017-08-23T17:41:11.215Z,2.13
2017-08-23T17:43:42.833Z,6.40
2017-08-23T17:46:14.425Z,4.93
2017-08-23T17:48:45.748Z,8.63
2017-08-23T17:51:17.317Z,7.80
2017-08-23T17:53:48.833Z,2.83
2017-08-23T17:56:20.277Z,2.50
2017-08-23T17:58:51.928Z,8.17
2017-08-23T18:01:26.078Z,3.10
2017-08-23T18:03:57.534Z,10.27
2017-08-23T18:06:29.104Z,9.10
2017-08-23T18:09:00.422Z,12.67
2017-08-23T18:11:31.744Z,10.80
2017-08-23T18:14:04.607Z,6.43
2017-08-23T18:16:35.965Z,11.47
2017-08-23T18:19:07.280Z,6.50
2017-08-23T18:21:38.565Z,15.73
2017-08-23T18:24:09.877Z,26.93
2017-08-23T18:26:41.469Z,13.53
2017-08-23T18:29:12.817Z,15.90
2017-08-23T18:31:44.137Z,6.27
2017-08-23T18:34:15.715Z,10.93
2017-08-23T18:36:47.050Z,8.93
2017-08-23T18:39:18.493Z,13.33
2017-08-23T18:41:49.851Z,20.67
2017-08-23T18:44:21.731Z,18.70
2017-08-23T18:46:53.386Z,23.20
2017-08-23T18:49:26.181Z,20.13
2017-08-23T18:51:57.607Z,14.47
2017-08-23T18:54:29.597Z,6.20
2017-08-23T18:57:01.060Z,13.30
2017-08-23T18:59:32.658Z,13.53
2017-08-23T19:02:04.839Z,14.03
2017-08-23T19:04:36.164Z,13.13
2017-08-23T19:07:07.749Z,10.53
2017-08-23T19:09:39.067Z,8.83
2017-08-23T19:12:10.396Z,11.73
2017-08-23T19:14:42.242Z,13.50
2017-08-23T19:17:13.653Z,13.93
2017-08-23T19:19:44.982Z,8.87
2017-08-23T19:22:16.344Z,6.07
2017-08-23T19:24:47.701Z,15.43
2017-08-23T19:27:19.314Z,9.10
2017-08-23T19:29:50.625Z,8.43
2017-08-23T19:32:22.709Z,13.57
2017-08-23T19:34:54.321Z,12.43
2017-08-23T19:37:26.604Z,24.10
2017-08-23T19:39:57.967Z,20.87
2017-08-23T19:42:29.287Z,10.13
2017-08-23T19:45:00.737Z,9.20
2017-08-23T19:47:32.815Z,19.73
2017-08-23T19:50:05.300Z,16.23
2017-08-23T19:52:36.859Z,19.57
2017-08-23T19:55:08.506Z,12.90
2017-08-23T19:57:40.968Z,11.27
2017-08-23T20:00:12.288Z,10.00
2017-08-23T20:02:43.629Z,11.83
2017-08-23T20:05:14.941Z,14.53
2017-08-23T20:07:46.548Z,14.33
2017-08-23T20:10:17.920Z,25.97
2017-08-23T20:12:49.230Z,22.53
2017-08-23T20:15:21.128Z,21.70
2017-08-23T20:17:52.442Z,26.60
2017-08-23T20:20:24.525Z,29.00
2017-08-23T20:22:55.839Z,22.90
2017-08-23T20:25:28.017Z,30.67
2017-08-23T20:27:59.951Z,13.20
2017-08-23T20:30:31.377Z,15.00
2017-08-23T20:33:03.544Z,11.07
2017-08-23T20:35:35.341Z,18.93
2017-08-23T20:38:06.760Z,22.90
2017-08-23T20:40:38.532Z,24.57
2017-08-23T20:43:09.916Z,22.20
2017-08-23T20:45:41.367Z,32.80
2017-08-23T20:48:13.084Z,27.30
2017-08-23T20:50:44.472Z,23.27
2017-08-23T20:53:15.825Z,19.63
2017-08-23T20:55:47.687Z,11.17
2017-08-23T20:58:19.158Z,11.90
2017-08-23T21:00:50.787Z,22.03
2017-08-23T21:03:22.652Z,16.90
2017-08-23T21:05:54.284Z,8.03
2017-08-23T21:08:26.432Z,11.23
2017-08-23T21:10:57.769Z,14.60
2017-08-23T21:13:29.147Z,10.40
2017-08-23T21:16:00.796Z,9.77
2017-08-23T21:18:32.383Z,6.03
2017-08-23T21:21:04.057Z,8.20
2017-08-23T21:23:35.346Z,15.33
2017-08-23T21:26:13.884Z,8.10
2017-08-23T21:28:45.713Z,8.37
2017-08-23T21:31:17.044Z,11.07
2017-08-23T21:33:48.770Z,5.43
2017-08-23T21:36:20.709Z,12.50
2017-08-23T21:38:52.072Z,8.43
2017-08-23T21:41:25.956Z,6.00
2017-08-23T21:43:57.278Z,6.50
2017-08-23T21:46:28.595Z,10.87
2017-08-23T21:49:00.716Z,9.50
2017-08-23T21:51:32.126Z,11.10
2017-08-23T21:54:04.184Z,10.30
2017-08-23T21:56:35.504Z,11.80
2017-08-23T21:59:07.144Z,8.87
2017-08-23T22:01:38.516Z,8.13
2017-08-23T22:04:09.875Z,7.50
2017-08-23T22:06:41.718Z,8.27
2017-08-23T22:09:13.083Z,9.13
2017-08-23T22:11:44.607Z,5.50
2017-08-23T22:14:16.319Z,8.23
2017-08-23T22:16:47.727Z,10.77
2017-08-23T22:19:27.142Z,8.87
2017-08-23T22:21:59.027Z,6.50
2017-08-23T22:24:30.352Z,6.57
2017-08-23T22:27:01.712Z,13.83
2017-08-23T22:29:33.361Z,7.27
2017-08-23T22:32:05.230Z,7.27
2017-08-23T22:34:36.573Z,10.50
2017-08-23T22:37:08.345Z,9.93
2017-08-23T22:39:39.682Z,9.43
2017-08-23T22:42:11.026Z,7.03
2017-08-23T22:44:42.700Z,10.57
2017-08-23T22:47:14.037Z,6.43
2017-08-23T22:49:45.374Z,12.00
2017-08-23T22:52:17.185Z,7.37
2017-08-23T22:54:48.541Z,7.63
2017-08-23T22:57:20.726Z,7.03
2017-08-23T22:59:52.312Z,12.67
2017-08-23T23:02:25.396Z,21.83
2017-08-23T23:04:57.171Z,16.30
2017-08-23T23:07:29.233Z,16.30
2017-08-23T23:10:00.830Z,25.20
2017-08-23T23:12:32.851Z,19.50
2017-08-23T23:15:04.643Z,26.60
2017-08-23T23:17:36.024Z,14.77
2017-08-23T23:20:07.724Z,25.00
2017-08-23T23:22:39.197Z,16.00
2017-08-23T23:25:11.591Z,18.13
2017-08-23T23:27:43.341Z,15.70
2017-08-23T23:30:14.727Z,9.60
2017-08-23T23:32:46.208Z,23.53
2017-08-23T23:35:17.994Z,15.27
2017-08-23T23:37:49.302Z,14.50
2017-08-23T23:40:21.947Z,10.03
2017-08-23T23:42:53.667Z,13.43
2017-08-23T23:45:25.925Z,13.90
2017-08-23T23:47:57.499Z,20.20
2017-08-23T23:50:29.094Z,17.93
2017-08-23T23:53:00.576Z,11.63
2017-08-23T23:55:32.236Z,10.73
2017-08-23T23:58:05.150Z,10.50
